Time;durP1;ratioP1;P1;durP2;ratioP2;P2;SDS_P1;SDS_P2;PMS_P1;PMS_P2;Temp;Humidity;BMP_temperature;BMP_pressure;BME280_temperature;BME280_humidity;BME280_pressure;Samples;Min_cycle;Max_cycle;Signal;HPM_P1;HPM_P2
2021/08/29 00:00:35;;;;;;;10.27;7.33;;;;;;;13.13;91.92;100565.23;1712839;82;21445;-73
2021/08/29 00:03:01;;;;;;;9.80;7.07;;;;;;;13.05;91.96;100556.40;1721501;82;21337;-73
2021/08/29 00:05:27;;;;;;;8.80;6.83;;;;;;;13.01;91.98;100564.19;1712702;82;21292;-74
2021/08/29 00:07:54;;;;;;;9.17;6.97;;;;;;;12.99;92.09;100565.52;1715436;83;21269;-74
2021/08/29 00:10:21;;;;;;;10.10;6.87;;;;;;;13.00;92.14;100573.86;1716382;81;21621;-73
2021/08/29 00:12:47;;;;;;;10.47;7.47;;;;;;;12.98;92.16;100571.97;1713492;82;21342;-74
2021/08/29 00:15:14;;;;;;;14.63;8.10;;;;;;;12.97;92.23;100560.45;1712730;82;21333;-73
2021/08/29 00:17:41;;;;;;;11.90;8.07;;;;;;;12.97;92.25;100552.95;1716233;82;21325;-74
2021/08/29 00:20:10;;;;;;;12.13;7.60;;;;;;;12.94;92.40;100547.59;1716051;82;21172;-74
2021/08/29 00:22:37;;;;;;;10.13;7.63;;;;;;;12.95;92.48;100541.14;1714398;82;21924;-73
2021/08/29 00:25:05;;;;;;;10.57;7.70;;;;;;;12.94;92.52;100546.25;1716744;82;21400;-74
2021/08/29 00:27:31;;;;;;;13.20;8.10;;;;;;;12.94;92.60;100549.47;1721652;80;21314;-74
2021/08/29 00:29:57;;;;;;;9.83;7.73;;;;;;;12.92;92.79;100549.73;1711907;82;21403;-74
2021/08/29 00:32:26;;;;;;;11.63;8.10;;;;;;;12.91;92.96;100558.31;1721397;81;21236;-74
2021/08/29 00:34:53;;;;;;;10.03;7.20;;;;;;;12.94;93.12;100550.27;1714852;82;21264;-74
2021/08/29 00:37:20;;;;;;;12.07;7.97;;;;;;;13.00;93.18;100547.05;1717465;82;21234;-74
2021/08/29 00:39:47;;;;;;;10.47;7.70;;;;;;;13.03;93.21;100538.42;1718502;82;21263;-74
2021/08/29 00:42:15;;;;;;;14.73;8.27;;;;;;;13.06;93.19;100537.88;1717395;82;21495;-74
2021/08/29 00:44:42;;;;;;;11.07;8.00;;;;;;;13.08;93.19;100541.10;1716689;82;21476;-74
2021/08/29 00:47:09;;;;;;;11.63;8.27;;;;;;;13.11;93.24;100534.66;1714022;82;21520;-74
2021/08/29 00:49:41;;;;;;;11.50;8.23;;;;;;;13.16;93.25;100523.09;1710733;82;21352;-73
2021/08/29 00:52:09;;;;;;;12.97;8.67;;;;;;;13.20;93.19;100526.84;1712799;82;21350;-73
2021/08/29 00:54:37;;;;;;;11.13;8.53;;;;;;;13.21;93.17;100521.74;1717366;82;21299;-74
2021/08/29 00:57:08;;;;;;;10.20;8.37;;;;;;;13.24;93.25;100525.76;1714992;82;21354;-74
2021/08/29 00:59:39;;;;;;;12.03;8.83;;;;;;;13.29;93.34;100525.23;1717398;81;21377;-74
2021/08/29 01:02:15;;;;;;;11.77;8.30;;;;;;;13.33;93.30;100523.60;1716194;82;21217;-75
2021/08/29 01:05:02;;;;;;;11.60;8.27;;;;;;;13.37;93.25;100523.30;1717294;82;21505;-74
2021/08/29 01:07:39;;;;;;;12.13;8.83;;;;;;;13.43;93.29;100513.90;1715389;82;21408;-74
2021/08/29 01:10:14;;;;;;;11.47;8.17;;;;;;;13.51;93.46;100520.02;1721227;81;21269;-74
2021/08/29 01:12:45;;;;;;;10.23;9.07;;;;;;;13.57;93.58;100518.91;1715296;82;21295;-73
2021/08/29 01:15:12;;;;;;;10.33;8.13;;;;;;;13.64;93.53;100529.33;1717362;81;21323;-73
2021/08/29 01:17:43;;;;;;;12.27;8.70;;;;;;;13.67;93.41;100532.27;1715189;82;21332;-73
2021/08/29 01:20:21;;;;;;;10.87;9.20;;;;;;;13.73;93.24;100538.41;1714359;82;21900;-73
2021/08/29 01:22:49;;;;;;;10.27;8.57;;;;;;;13.78;93.08;100535.13;1714826;82;21327;-73
2021/08/29 01:25:22;;;;;;;10.70;8.43;;;;;;;13.83;92.85;100536.45;1716627;82;21619;-73
2021/08/29 01:27:59;;;;;;;11.70;8.33;;;;;;;13.86;92.58;100543.16;1711638;82;21428;-73
2021/08/29 01:30:26;;;;;;;10.90;8.60;;;;;;;13.90;92.31;100542.05;1682250;83;21893;-73
2021/08/29 01:32:54;;;;;;;10.10;8.73;;;;;;;13.91;91.51;100533.70;1715744;82;21458;-73
2021/08/29 01:35:21;;;;;;;10.23;8.30;;;;;;;13.90;91.50;100532.66;1734641;81;21559;-73
2021/08/29 01:37:55;;;;;;;10.43;8.93;;;;;;;13.90;91.50;100532.66;1715158;81;21585;-74
2021/08/29 01:40:22;;;;;;;12.37;9.60;;;;;;;13.84;91.69;100520.59;1722905;81;21471;-74
2021/08/29 01:42:49;;;;;;;10.53;9.37;;;;;;;13.84;91.69;100520.59;1720745;81;22030;-73
2021/08/29 01:45:16;;;;;;;10.67;9.43;;;;;;;13.88;91.46;100517.36;1717557;81;21585;-74
2021/08/29 01:47:44;;;;;;;12.33;9.33;;;;;;;13.92;91.45;100525.94;1719007;81;21559;-73
2021/08/29 01:50:12;;;;;;;10.60;8.23;;;;;;;14.09;91.31;100545.67;1725214;81;21622;-74
2021/08/29 01:52:40;;;;;;;9.20;8.13;;;;;;;14.11;91.41;100543.49;1722944;81;21759;-74
2021/08/29 01:55:25;;;;;;;10.80;8.70;;;;;;;14.14;90.92;100535.42;1723670;80;21482;-74
2021/08/29 01:57:54;;;;;;;10.20;8.43;;;;;;;14.16;90.88;100535.41;1711521;81;21667;-73
2021/08/29 02:00:25;;;;;;;9.87;8.43;;;;;;;14.16;90.88;100535.41;1720308;81;21483;-73
2021/08/29 02:02:52;;;;;;;10.90;8.30;;;;;;;14.20;90.67;100521.67;1722749;81;22133;-73
2021/08/29 02:05:19;;;;;;;11.27;9.03;;;;;;;14.19;90.64;100514.70;1719149;81;21587;-74
2021/08/29 02:07:48;;;;;;;9.20;8.30;;;;;;;14.16;90.24;100509.89;1715814;81;22029;-74
2021/08/29 02:10:24;;;;;;;8.90;8.00;;;;;;;14.19;90.63;100521.97;1726250;81;21520;-73
2021/08/29 02:13:05;;;;;;;10.43;8.37;;;;;;;14.29;90.47;100524.56;1719875;81;21818;-73
2021/08/29 02:15:35;;;;;;;9.10;8.00;;;;;;;14.29;90.47;100524.56;1719309;81;21563;-73
2021/08/29 02:18:09;;;;;;;9.63;8.63;;;;;;;14.34;90.67;100525.05;1713901;81;21838;-74
2021/08/29 02:20:37;;;;;;;10.73;8.80;;;;;;;14.38;90.70;100512.64;1716421;81;21629;-73
2021/08/29 02:23:05;;;;;;;10.90;8.47;;;;;;;14.41;90.52;100510.73;1716144;81;22326;-74
2021/08/29 02:25:32;;;;;;;11.03;8.50;;;;;;;14.47;90.47;100513.63;1720648;81;21783;-74
2021/08/29 02:28:00;;;;;;;9.60;8.57;;;;;;;14.60;89.63;100511.65;1717854;81;21946;-74
2021/08/29 02:30:27;;;;;;;10.40;8.70;;;;;;;14.60;89.63;100511.65;1719908;82;21710;-74
2021/08/29 02:32:55;;;;;;;10.57;8.33;;;;;;;14.67;89.33;100508.63;1737544;81;21725;-74
2021/08/29 02:35:23;;;;;;;9.77;8.00;;;;;;;14.70;88.87;100502.13;1717408;81;21692;-74
2021/08/29 02:37:52;;;;;;;8.87;7.20;;;;;;;14.75;88.48;100496.71;1737523;81;21708;-73
2021/08/29 02:40:20;;;;;;;9.80;7.27;;;;;;;14.74;88.01;100491.60;1732063;80;22305;-74
2021/08/29 02:42:48;;;;;;;9.47;6.97;;;;;;;14.71;87.80;100505.09;1727111;81;21743;-73
2021/08/29 02:45:14;;;;;;;9.83;7.47;;;;;;;14.71;87.75;100505.09;1734985;81;21719;-73
2021/08/29 02:47:42;;;;;;;9.47;7.53;;;;;;;14.74;87.81;100516.62;1707822;81;21711;-73
2021/08/29 02:50:10;;;;;;;9.13;7.60;;;;;;;14.81;87.86;100520.84;1733244;81;21891;-73
2021/08/29 02:52:39;;;;;;;8.77;7.20;;;;;;;14.87;87.93;100527.25;1734862;81;21814;-73
2021/08/29 02:55:08;;;;;;;10.10;7.77;;;;;;;14.93;87.95;100536.03;1730939;81;21782;-74
2021/08/29 02:57:36;;;;;;;8.37;7.47;;;;;;;14.98;87.98;100536.79;1733533;82;21666;-73
2021/08/29 03:00:12;;;;;;;8.10;7.00;;;;;;;15.01;87.89;100535.42;1717431;81;21788;-73
2021/08/29 03:02:42;;;;;;;10.03;7.37;;;;;;;14.96;87.83;100543.53;1695594;81;21722;-73
2021/08/29 03:05:11;;;;;;;10.67;7.60;;;;;;;14.95;87.87;100543.28;1720031;81;22311;-73
2021/08/29 03:07:38;;;;;;;8.40;7.03;;;;;;;14.97;88.06;100536.55;1731272;81;21735;-73
2021/08/29 03:10:07;;;;;;;7.67;6.50;;;;;;;15.05;87.92;100533.75;1729855;81;22270;-73
2021/08/29 03:12:34;;;;;;;9.67;7.30;;;;;;;15.15;87.72;100527.45;1720405;81;21773;-73
2021/08/29 03:15:19;;;;;;;10.07;7.27;;;;;;;15.24;87.69;100530.56;1719649;81;22440;-73
2021/08/29 03:17:47;;;;;;;10.50;7.03;;;;;;;15.34;87.53;100522.11;1734597;81;21685;-73
2021/08/29 03:20:16;;;;;;;9.07;6.53;;;;;;;15.40;87.48;100525.78;1731362;81;21718;-73
2021/08/29 03:22:49;;;;;;;9.17;6.10;;;;;;;15.46;87.40;100522.45;1737406;81;21260;-73
2021/08/29 03:25:17;;;;;;;7.13;5.87;;;;;;;15.53;87.09;100512.16;1733276;81;21041;-73
2021/08/29 03:27:44;;;;;;;7.30;5.63;;;;;;;15.61;86.52;100514.18;1731669;81;21044;-74
2021/08/29 03:30:12;;;;;;;7.40;5.93;;;;;;;15.65;85.81;100507.11;1709771;83;21618;-74
2021/08/29 03:32:40;;;;;;;8.33;5.80;;;;;;;15.68;85.06;100509.25;1735873;81;21104;-73
2021/08/29 03:35:10;;;;;;;6.93;5.53;;;;;;;15.73;84.51;100508.91;1707637;81;21020;-73
2021/08/29 03:37:41;;;;;;;7.23;5.83;;;;;;;15.76;83.94;100511.03;1697052;82;22335;-74
2021/08/29 03:40:09;;;;;;;7.20;5.37;;;;;;;15.77;83.52;100510.75;1733742;82;21542;-73
2021/08/29 03:42:36;;;;;;;7.63;5.70;;;;;;;15.80;83.05;100507.47;1692322;82;21829;-73
2021/08/29 03:45:08;;;;;;;7.37;5.90;;;;;;;15.81;82.93;100500.19;1731091;81;21578;-73
2021/08/29 03:47:36;;;;;;;6.10;5.17;;;;;;;15.82;82.64;100497.74;1737120;81;21087;-74
2021/08/29 03:50:06;;;;;;;7.23;5.43;;;;;;;15.80;82.43;100494.01;1726829;81;21002;-74
2021/08/29 03:52:35;;;;;;;7.03;5.17;;;;;;;15.78;82.34;100488.10;1735089;81;21094;-74
2021/08/29 03:55:09;;;;;;;6.83;5.10;;;;;;;15.73;82.34;100480.13;1706938;82;21132;-74
2021/08/29 03:57:37;;;;;;;5.90;4.80;;;;;;;15.69;82.21;100486.64;1660670;83;21145;-74
2021/08/29 04:00:06;;;;;;;4.90;4.20;;;;;;;15.61;82.34;100481.08;1738415;81;21007;-74
2021/08/29 04:02:36;;;;;;;5.00;3.98;;;;;;;15.58;82.25;100477.62;1738339;81;21030;-73
2021/08/29 04:05:07;;;;;;;6.13;4.13;;;;;;;15.58;82.39;100472.23;1699713;82;21584;-73
2021/08/29 04:07:35;;;;;;;6.23;3.70;;;;;;;15.57;82.40;100476.82;1691332;82;21050;-74
2021/08/29 04:10:05;;;;;;;4.97;3.90;;;;;;;15.57;82.61;100473.34;1732501;81;21045;-73
2021/08/29 04:12:35;;;;;;;;;;;;;;;15.56;82.35;100473.06;1729759;81;21034;-73
2021/08/29 04:15:22;;;;;;;4.80;3.90;;;;;;;15.60;82.50;100474.89;1727174;82;20162;-73
2021/08/29 04:17:49;;;;;;;5.03;4.00;;;;;;;15.69;82.58;100480.43;1734888;81;20955;-74
2021/08/29 04:20:17;;;;;;;6.27;3.10;;;;;;;15.77;82.52;100474.95;1731711;82;22146;-74
2021/08/29 04:22:45;;;;;;;4.63;3.53;;;;;;;15.83;82.02;100475.92;1730114;82;21113;-74
2021/08/29 04:25:14;;;;;;;6.43;3.60;;;;;;;15.90;81.71;100472.30;1732605;82;20991;-73
2021/08/29 04:27:42;;;;;;;4.80;3.30;;;;;;;15.95;81.72;100468.16;1737600;81;21148;-74
2021/08/29 04:30:11;;;;;;;6.53;3.93;;;;;;;16.01;81.78;100480.20;1734643;82;21114;-75
2021/08/29 04:32:40;;;;;;;7.22;3.65;;;;;;;16.11;81.90;100486.77;1727896;82;23600;-75
2021/08/29 04:35:09;;;;;;;5.30;3.37;;;;;;;16.23;81.84;100489.00;1726582;82;21150;-73
2021/08/29 04:37:38;;;;;;;4.97;3.00;;;;;;;16.30;81.68;100477.28;1736183;81;21049;-73
2021/08/29 04:40:08;;;;;;;6.43;3.17;;;;;;;16.35;81.42;100477.17;1736052;82;21585;-73
2021/08/29 04:42:36;;;;;;;5.60;3.00;;;;;;;16.36;81.32;100468.81;1728627;82;20961;-73
2021/08/29 04:45:03;;;;;;;4.60;3.00;;;;;;;16.41;81.17;100463.86;1730485;82;21781;-74
2021/08/29 04:47:30;;;;;;;6.47;2.90;;;;;;;16.49;81.05;100453.75;1724465;81;21038;-72
2021/08/29 04:49:58;;;;;;;4.07;2.63;;;;;;;16.50;80.22;100445.91;1728737;81;21073;-73
2021/08/29 04:52:26;;;;;;;4.53;2.53;;;;;;;16.48;78.95;100439.20;1732048;82;21100;-73
2021/08/29 04:54:55;;;;;;;5.20;2.70;;;;;;;16.47;78.68;100434.37;1734798;81;21085;-73
2021/08/29 04:57:22;;;;;;;3.87;2.43;;;;;;;16.46;78.46;100436.03;1726474;82;22202;-73
2021/08/29 04:59:49;;;;;;;4.83;2.53;;;;;;;16.45;78.15;100423.07;1733631;81;21077;-73
2021/08/29 05:02:16;;;;;;;4.03;2.50;;;;;;;16.48;78.26;100422.48;1710050;82;21121;-73
2021/08/29 05:04:44;;;;;;;3.00;2.27;;;;;;;16.52;78.35;100430.23;1729868;82;21779;-73
2021/08/29 05:07:11;;;;;;;4.73;2.50;;;;;;;16.56;78.40;100431.78;1730267;81;21518;-73
2021/08/29 05:09:39;;;;;;;3.53;2.63;;;;;;;16.58;78.48;100426.34;1700878;81;21118;-73
2021/08/29 05:12:08;;;;;;;3.80;2.40;;;;;;;16.64;77.98;100428.38;1696549;82;21933;-72
2021/08/29 05:14:36;;;;;;;5.23;2.60;;;;;;;16.70;77.86;100430.42;1735592;81;21073;-73
2021/08/29 05:17:04;;;;;;;4.40;2.67;;;;;;;16.78;77.27;100410.86;1730607;81;21002;-75
2021/08/29 05:19:32;;;;;;;4.30;2.70;;;;;;;16.80;76.43;100413.50;1732627;81;21125;-74
2021/08/29 05:22:00;;;;;;;3.90;2.60;;;;;;;16.86;75.93;100419.59;1736948;81;21628;-73
2021/08/29 05:24:35;;;;;;;3.43;2.43;;;;;;;16.87;75.37;100423.33;1727857;81;21050;-73
2021/08/29 05:27:04;;;;;;;4.73;2.80;;;;;;;16.94;75.78;100427.52;1698497;82;21090;-73
2021/08/29 05:29:31;;;;;;;3.77;2.60;;;;;;;16.99;75.72;100416.63;1727136;81;21030;-73
2021/08/29 05:31:58;;;;;;;3.93;2.43;;;;;;;17.01;75.50;100420.63;1725205;81;21027;-72
2021/08/29 05:34:26;;;;;;;4.93;3.10;;;;;;;17.05;75.12;100424.87;1724395;81;21506;-72
2021/08/29 05:36:53;;;;;;;4.13;2.90;;;;;;;17.07;75.05;100421.30;1693608;83;21111;-73
2021/08/29 05:39:20;;;;;;;4.87;2.90;;;;;;;17.10;74.50;100417.99;1731857;81;21081;-72
2021/08/29 05:41:47;;;;;;;4.40;2.70;;;;;;;17.13;74.03;100416.04;1736248;82;21062;-73
2021/08/29 05:44:24;;;;;;;4.87;2.80;;;;;;;17.17;73.66;100410.83;1730176;81;21522;-73
2021/08/29 05:46:51;;;;;;;4.70;3.00;;;;;;;17.19;73.62;100409.98;1731979;81;22149;-74
2021/08/29 05:49:19;;;;;;;4.50;3.10;;;;;;;17.17;73.30;100410.83;1695458;82;21576;-74
2021/08/29 05:51:45;;;;;;;5.33;3.10;;;;;;;17.14;73.06;100407.39;1733017;81;21058;-73
2021/08/29 05:54:12;;;;;;;5.40;2.87;;;;;;;17.10;72.97;100407.99;1725049;82;21027;-74
2021/08/29 05:56:39;;;;;;;4.17;3.00;;;;;;;17.15;72.86;100419.24;1724063;81;21161;-73
2021/08/29 05:59:06;;;;;;;4.57;3.10;;;;;;;17.20;72.77;100404.83;1721123;81;21177;-75
2021/08/29 06:01:32;;;;;;;4.53;3.07;;;;;;;17.30;72.78;100397.84;1724580;81;21061;-75
2021/08/29 06:03:59;;;;;;;5.20;2.83;;;;;;;17.42;72.70;100390.00;1725486;81;21101;-75
2021/08/29 06:06:43;;;;;;;4.73;3.03;;;;;;;17.52;72.63;100395.16;1725537;81;21509;-75
2021/08/29 06:09:09;;;;;;;5.10;3.53;;;;;;;17.61;72.21;100402.53;1723876;81;21072;-75
2021/08/29 06:11:37;;;;;;;4.83;3.10;;;;;;;17.63;71.78;100398.39;1697461;83;22420;-75
2021/08/29 06:14:05;;;;;;;3.90;2.70;;;;;;;17.66;71.97;100403.73;1725764;81;21553;-74
2021/08/29 06:16:33;;;;;;;4.53;3.20;;;;;;;17.69;71.92;100402.57;1720077;81;21116;-75
2021/08/29 06:19:00;;;;;;;4.43;2.87;;;;;;;17.77;71.76;100393.77;1701154;82;21021;-75
2021/08/29 06:21:27;;;;;;;4.10;2.80;;;;;;;17.83;71.18;100390.36;1734465;81;21360;-75
2021/08/29 06:23:56;;;;;;;4.60;3.03;;;;;;;17.88;71.14;100391.59;1740805;81;21037;-74
2021/08/29 06:26:43;;;;;;;4.77;3.40;;;;;;;17.97;70.99;100401.11;1734585;81;21011;-74
2021/08/29 06:29:19;;;;;;;4.87;3.20;;;;;;;18.11;70.88;100399.66;1719572;81;21534;-74
2021/08/29 06:32:03;;;;;;;6.33;3.03;;;;;;;18.33;70.59;100392.02;1661326;84;21589;-74
2021/08/29 06:34:33;;;;;;;4.85;2.87;;;;;;;18.51;69.92;100385.01;1702868;81;21645;-74
2021/08/29 06:37:02;;;;;;;4.27;3.00;;;;;;;18.69;68.92;100386.39;1724530;81;21545;-74
2021/08/29 06:39:30;;;;;;;4.03;2.60;;;;;;;18.80;68.28;100381.53;1738586;81;21050;-77
2021/08/29 06:41:59;;;;;;;4.13;2.87;;;;;;;18.91;67.20;100364.66;1729476;81;21125;-76
2021/08/29 06:44:26;;;;;;;3.87;2.50;;;;;;;19.01;66.96;100354.07;1737257;81;21140;-75
2021/08/29 06:47:01;;;;;;;4.90;3.10;;;;;;;19.11;66.16;100357.02;1733725;81;21002;-76
2021/08/29 06:49:46;;;;;;;4.17;2.60;;;;;;;19.13;64.87;100358.86;1737301;81;21801;-77
2021/08/29 06:52:31;;;;;;;3.57;2.60;;;;;;;19.08;63.88;100353.59;1733675;81;21039;-78
2021/08/29 06:55:16;;;;;;;4.87;3.00;;;;;;;19.06;64.63;100353.13;1722445;81;21424;-78
2021/08/29 06:57:45;;;;;;;3.90;2.43;;;;;;;19.11;64.90;100345.63;1666189;81;21031;-77
2021/08/29 07:00:13;;;;;;;3.47;2.43;;;;;;;19.16;63.76;100336.56;1720915;80;21022;-75
2021/08/29 07:02:40;;;;;;;4.80;3.00;;;;;;;19.18;63.87;100337.02;1736582;81;21808;-77
2021/08/29 07:05:09;;;;;;;6.20;3.03;;;;;;;19.16;63.92;100345.48;1737450;81;47306;-76
2021/08/29 07:07:36;;;;;;;5.40;2.90;;;;;;;19.13;63.29;100346.12;1695720;81;21007;-76
2021/08/29 07:10:06;;;;;;;4.37;3.00;;;;;;;19.07;63.78;100340.62;1716800;81;21078;-76
2021/08/29 07:12:34;;;;;;;4.50;2.90;;;;;;;19.06;64.63;100337.69;1720329;81;21078;-76
2021/08/29 07:15:04;;;;;;;4.00;3.00;;;;;;;19.13;64.92;100337.20;1717243;81;21075;-76
2021/08/29 07:17:31;;;;;;;4.00;2.93;;;;;;;19.24;65.21;100333.04;1718445;81;21576;-77
2021/08/29 07:19:58;;;;;;;4.70;3.10;;;;;;;19.37;64.10;100332.63;1724228;81;21517;-76
2021/08/29 07:22:27;;;;;;;4.77;2.90;;;;;;;19.42;63.54;100329.77;1726211;80;21573;-76
2021/08/29 07:25:12;;;;;;;4.57;2.63;;;;;;;19.50;64.35;100329.50;1719984;81;22496;-76
2021/08/29 07:27:58;;;;;;;5.13;2.83;;;;;;;19.68;64.02;100322.96;1720127;81;21170;-75
2021/08/29 07:30:44;;;;;;;3.73;2.77;;;;;;;19.81;64.15;100326.56;1719249;81;21061;-75
2021/08/29 07:33:12;;;;;;;4.93;3.10;;;;;;;19.95;64.05;100331.80;1723366;81;21086;-76
2021/08/29 07:35:41;;;;;;;4.20;3.00;;;;;;;20.04;62.50;100327.92;1714334;81;21305;-75
2021/08/29 07:38:27;;;;;;;4.47;2.90;;;;;;;20.08;62.23;100330.78;1724211;81;20953;-75
2021/08/29 07:40:53;;;;;;;4.30;3.00;;;;;;;20.10;62.46;100325.80;1726570;81;22330;-78
2021/08/29 07:43:22;;;;;;;5.37;2.93;;;;;;;20.20;62.54;100324.08;1722639;81;21062;-77
2021/08/29 07:45:49;;;;;;;3.90;2.60;;;;;;;20.33;62.24;100315.47;1718814;81;21144;-76
2021/08/29 07:48:18;;;;;;;4.37;2.97;;;;;;;20.52;61.69;100313.72;1722533;81;21059;-79
2021/08/29 07:50:45;;;;;;;3.70;2.90;;;;;;;20.70;61.80;100312.48;1721311;81;21070;-80
2021/08/29 07:53:12;;;;;;;5.37;2.93;;;;;;;20.93;61.30;100308.08;1716812;81;21503;-81
2021/08/29 07:55:57;;;;;;;4.77;2.90;;;;;;;21.15;59.88;100308.26;1711206;81;21502;-81
2021/08/29 07:58:28;;;;;;;3.92;2.60;;;;;;;21.23;59.14;100294.61;1741941;80;21601;-82
2021/08/29 08:01:09;;;;;;;4.97;2.60;;;;;;;21.36;59.18;100296.04;1725520;81;20947;-82
2021/08/29 08:03:36;;;;;;;3.60;2.47;;;;;;;21.45;58.31;100296.72;1711451;81;21059;-81
2021/08/29 08:06:06;;;;;;;4.60;2.77;;;;;;;21.50;58.17;100288.36;1722025;81;21572;-79
2021/08/29 08:08:35;;;;;;;3.57;2.40;;;;;;;21.51;58.22;100286.66;1684796;83;20974;-79
2021/08/29 08:11:12;;;;;;;4.27;2.53;;;;;;;21.49;56.99;100291.65;1706345;81;21115;-78
2021/08/29 08:13:40;;;;;;;3.93;2.53;;;;;;;21.45;57.51;100291.28;1714020;81;21149;-76
2021/08/29 08:16:07;;;;;;;4.07;2.83;;;;;;;21.43;57.40;100293.56;1716660;81;21050;-75
2021/08/29 08:18:36;;;;;;;6.17;3.13;;;;;;;21.45;57.51;100295.36;1724693;81;21156;-72
2021/08/29 08:21:03;;;;;;;3.90;2.47;;;;;;;21.50;57.23;100290.52;1728035;81;21094;-72
2021/08/29 08:23:31;;;;;;;4.87;2.80;;;;;;;21.66;57.83;100292.59;1717151;81;21510;-72
2021/08/29 08:26:03;;;;;;;3.67;2.65;;;;;;;21.77;56.91;100295.87;1692771;84;28442;-72
2021/08/29 08:28:44;;;;;;;3.62;2.50;;;;;;;21.87;56.54;100279.67;1727741;81;21505;-72
2021/08/29 08:31:31;;;;;;;5.20;3.20;;;;;;;21.94;57.10;100273.09;1668549;84;21286;-72
2021/08/29 08:34:17;;;;;;;3.47;2.77;;;;;;;22.01;56.71;100272.53;1663083;84;21069;-73
2021/08/29 08:36:46;;;;;;;5.87;2.70;;;;;;;22.06;55.87;100261.44;1672773;82;21003;-73
2021/08/29 08:39:14;;;;;;;3.83;2.80;;;;;;;22.04;55.35;100252.81;1733510;81;21046;-72
2021/08/29 08:41:45;;;;;;;5.12;2.87;;;;;;;22.06;55.62;100249.77;1725493;81;21018;-73
2021/08/29 08:44:32;;;;;;;4.20;3.20;;;;;;;22.06;55.14;100241.61;1727653;82;21062;-73
2021/08/29 08:47:24;;;;;;;4.17;3.00;;;;;;;22.08;55.66;100237.42;1715224;81;21026;-73
2021/08/29 08:50:11;;;;;;;5.20;3.00;;;;;;;22.19;56.03;100220.87;1729092;81;21433;-74
2021/08/29 08:52:56;;;;;;;4.83;3.20;;;;;;;22.30;55.59;100217.09;1728067;81;21090;-74
2021/08/29 08:55:42;;;;;;;4.27;3.20;;;;;;;22.43;55.58;100217.86;1729059;81;21134;-74
2021/08/29 08:58:16;;;;;;;4.50;3.05;;;;;;;22.49;55.24;100212.40;1654865;81;21143;-72
2021/08/29 09:00:45;;;;;;;3.52;2.70;;;;;;;22.56;56.06;100199.56;1731371;81;21138;-72
2021/08/29 09:03:26;;;;;;;4.40;2.85;;;;;;;22.69;55.72;100195.08;1737042;81;21471;-72
2021/08/29 09:06:06;;;;;;;4.83;3.33;;;;;;;22.85;54.95;100190.24;1739451;81;21058;-73
2021/08/29 09:08:34;;;;;;;4.40;2.80;;;;;;;23.03;55.04;100193.45;1739711;81;21070;-73
2021/08/29 09:11:03;;;;;;;4.70;3.03;;;;;;;23.17;53.90;100189.17;1737308;81;21079;-73
2021/08/29 09:13:49;;;;;;;4.10;2.93;;;;;;;23.29;54.20;100186.13;1737317;81;21052;-72
2021/08/29 09:16:21;;;;;;;4.33;2.90;;;;;;;23.29;51.58;100180.69;1727041;81;20998;-72
2021/08/29 09:18:50;;;;;;;5.87;2.90;;;;;;;23.19;51.00;100183.36;1730715;81;21226;-73
2021/08/29 09:21:32;;;;;;;3.63;2.83;;;;;;;23.09;51.58;100180.59;1731162;81;21087;-73
2021/08/29 09:24:09;;;;;;;3.63;2.83;;;;;;;23.06;51.86;100173.11;1718372;81;21163;-74
2021/08/29 09:26:44;;;;;;;4.33;2.80;;;;;;;23.08;52.26;100178.23;1700487;83;21070;-74
2021/08/29 09:29:23;;;;;;;4.63;3.20;;;;;;;23.14;51.95;100172.17;1735632;81;21566;-73
2021/08/29 09:31:51;;;;;;;5.07;3.43;;;;;;;23.25;52.37;100166.19;1736963;81;21129;-73
2021/08/29 09:34:21;;;;;;;5.37;3.20;;;;;;;23.36;52.27;100163.14;1714370;81;21121;-73
2021/08/29 09:36:51;;;;;;;4.67;3.77;;;;;;;23.46;51.74;100162.63;1742412;81;21541;-73
2021/08/29 09:39:21;;;;;;;5.70;3.40;;;;;;;23.56;52.46;100160.73;1720604;81;20954;-73
2021/08/29 09:42:06;;;;;;;5.67;3.73;;;;;;;23.67;51.36;100154.72;1751158;81;20992;-73
2021/08/29 09:44:41;;;;;;;5.47;3.60;;;;;;;23.75;51.98;100157.27;1721015;81;21149;-73
2021/08/29 09:47:29;;;;;;;4.43;3.63;;;;;;;23.88;51.57;100151.91;1693308;82;20944;-73
2021/08/29 09:50:15;;;;;;;5.37;3.50;;;;;;;24.04;50.92;100148.34;1600561;86;21499;-74
2021/08/29 09:52:46;;;;;;;4.47;3.30;;;;;;;24.17;50.48;100144.33;1701980;82;21555;-73
2021/08/29 09:55:17;;;;;;;4.27;3.40;;;;;;;24.29;50.67;100140.69;1736554;81;21174;-74
2021/08/29 09:58:27;;;;;;;5.40;3.80;;;;;;;24.44;51.24;100141.19;1708843;81;21975;-73
2021/08/29 10:01:15;;;;;;;5.63;3.63;;;;;;;24.69;50.98;100135.42;1733072;81;21474;-73
2021/08/29 10:03:51;;;;;;;5.60;3.57;;;;;;;24.89;49.44;100135.58;1730252;81;21144;-73
2021/08/29 10:06:25;;;;;;;5.30;3.90;;;;;;;25.00;49.61;100132.45;1740539;81;20999;-72
2021/08/29 10:09:00;;;;;;;5.90;3.80;;;;;;;25.13;50.33;100128.20;1735767;81;21085;-74
2021/08/29 10:11:32;;;;;;;6.27;4.00;;;;;;;25.23;48.96;100118.01;1735926;82;21034;-72
2021/08/29 10:14:01;;;;;;;6.53;4.03;;;;;;;25.25;48.95;100115.70;1737133;81;21097;-73
2021/08/29 10:16:29;;;;;;;6.80;4.30;;;;;;;25.21;48.29;100109.41;1734783;81;21661;-73
2021/08/29 10:19:01;;;;;;;5.30;3.90;;;;;;;25.07;49.22;100100.34;1713852;81;21027;-73
2021/08/29 10:21:47;;;;;;;4.90;3.97;;;;;;;25.13;49.52;100105.75;1733450;81;21493;-73
2021/08/29 10:24:14;;;;;;;5.23;4.50;;;;;;;25.32;50.48;100097.27;1713481;81;21065;-75
2021/08/29 10:26:42;;;;;;;4.90;3.87;;;;;;;25.52;49.01;100086.41;1739115;81;21070;-74
2021/08/29 10:29:29;;;;;;;6.33;4.70;;;;;;;25.63;48.36;100094.77;1732638;81;21957;-74
2021/08/29 10:32:34;;;;;;;4.83;4.30;;;;;;;25.62;48.83;100083.03;1735180;81;20989;-73
2021/08/29 10:35:09;;;;;;;6.47;4.40;;;;;;;25.66;48.12;100088.55;1716796;81;21141;-73
2021/08/29 10:37:40;;;;;;;6.27;4.80;;;;;;;25.67;48.98;100090.15;1738623;81;20963;-72
2021/08/29 10:40:14;;;;;;;6.37;4.80;;;;;;;25.77;49.89;100088.13;1721156;82;21123;-72
2021/08/29 10:42:47;;;;;;;5.83;4.50;;;;;;;25.96;49.94;100079.81;1742182;81;21657;-75
2021/08/29 10:45:22;;;;;;;5.03;4.47;;;;;;;26.18;48.79;100070.45;1733297;81;21011;-74
2021/08/29 10:48:11;;;;;;;5.77;4.47;;;;;;;26.30;48.86;100065.31;1726324;81;21150;-73
2021/08/29 10:50:48;;;;;;;6.17;4.43;;;;;;;26.39;48.83;100055.64;1738393;81;21038;-74
2021/08/29 10:53:31;;;;;;;5.03;4.33;;;;;;;26.47;48.41;100058.44;1737352;81;21047;-74
2021/08/29 10:56:20;;;;;;;6.60;4.50;;;;;;;26.50;48.03;100057.72;1734850;81;21377;-73
2021/08/29 10:59:13;;;;;;;5.80;4.77;;;;;;;26.49;48.01;100055.56;1725805;82;21074;-73
2021/08/29 11:01:48;;;;;;;6.47;4.70;;;;;;;26.54;48.10;100059.90;1730708;81;21094;-73
2021/08/29 11:04:28;;;;;;;5.30;4.50;;;;;;;26.54;47.67;100053.84;1657699;83;21042;-74
2021/08/29 11:07:03;;;;;;;6.00;4.43;;;;;;;26.56;47.59;100056.22;1730688;81;20988;-74
2021/08/29 11:09:43;;;;;;;6.43;4.67;;;;;;;26.55;48.38;100047.77;1723529;81;21535;-74
2021/08/29 11:12:22;;;;;;;5.40;4.80;;;;;;;26.52;47.74;100044.42;1742070;81;21601;-73
2021/08/29 11:14:54;;;;;;;5.50;4.60;;;;;;;26.41;48.29;100042.34;1737661;81;21564;-74
2021/08/29 11:17:24;;;;;;;5.53;4.67;;;;;;;26.41;48.67;100032.75;1737045;81;21171;-73
2021/08/29 11:20:07;;;;;;;6.07;5.07;;;;;;;26.44;48.65;100028.48;1706452;81;21035;-74
2021/08/29 11:22:52;;;;;;;6.07;5.43;;;;;;;26.41;48.67;100021.02;1732131;80;21562;-74
2021/08/29 11:25:38;;;;;;;8.00;5.27;;;;;;;26.43;48.36;100018.11;1719591;82;21039;-75
2021/08/29 11:28:31;;;;;;;6.23;4.73;;;;;;;26.39;48.44;100016.48;1732786;81;21019;-73
2021/08/29 11:31:01;;;;;;;6.10;5.20;;;;;;;26.40;49.20;100013.39;1730151;81;21558;-72
2021/08/29 11:33:29;;;;;;;7.03;5.10;;;;;;;26.51;49.46;100013.51;1728360;81;21043;-73
2021/08/29 11:35:58;;;;;;;7.47;5.27;;;;;;;26.63;49.60;100012.45;1740329;81;21508;-75
2021/08/29 11:38:37;;;;;;;7.03;4.80;;;;;;;26.74;48.63;100007.05;1662424;82;21546;-74
2021/08/29 11:41:13;;;;;;;8.87;5.57;;;;;;;26.90;49.13;100007.56;1747366;80;21007;-75
2021/08/29 11:43:47;;;;;;;5.93;5.13;;;;;;;27.12;48.48;100003.02;1732052;81;21527;-74
2021/08/29 11:46:22;;;;;;;7.00;5.50;;;;;;;27.27;47.19;99996.45;1736806;81;21053;-74